sensor_id;sensor_type;location;lat;lon;timestamp;P1;durP1;ratioP1;P2;durP2;ratioP2
36829;SDS011;22767;47.328;9.640;2023-02-13T00:01:39;21.20;;;13.30;;
36829;SDS011;22767;47.328;9.640;2023-02-13T00:04:05;22.70;;;13.93;;
36829;SDS011;22767;47.328;9.640;2023-02-13T00:06:32;19.85;;;13.35;;
36829;SDS011;22767;47.328;9.640;2023-02-13T00:08:58;20.00;;;13.50;;
36829;SDS011;22767;47.328;9.640;2023-02-13T00:11:24;18.30;;;13.18;;
36829;SDS011;22767;47.328;9.640;2023-02-13T00:13:50;16.60;;;12.30;;
36829;SDS011;22767;47.328;9.640;2023-02-13T00:16:16;17.35;;;12.57;;
36829;SDS011;22767;47.328;9.640;2023-02-13T00:18:42;18.17;;;11.85;;
36829;SDS011;22767;47.328;9.640;2023-02-13T00:21:09;17.48;;;11.90;;
36829;SDS011;22767;47.328;9.640;2023-02-13T00:23:36;19.02;;;12.65;;
36829;SDS011;22767;47.328;9.640;2023-02-13T00:26:05;22.10;;;14.20;;
36829;SDS011;22767;47.328;9.640;2023-02-13T00:28:31;18.05;;;12.20;;
36829;SDS011;22767;47.328;9.640;2023-02-13T00:31:01;20.35;;;13.15;;
36829;SDS011;22767;47.328;9.640;2023-02-13T00:33:27;16.55;;;12.07;;
36829;SDS011;22767;47.328;9.640;2023-02-13T00:36:00;18.92;;;13.07;;
36829;SDS011;22767;47.328;9.640;2023-02-13T00:38:28;18.50;;;11.88;;
36829;SDS011;22767;47.328;9.640;2023-02-13T00:40:54;16.60;;;10.88;;
36829;SDS011;22767;47.328;9.640;2023-02-13T00:43:20;17.02;;;11.00;;
36829;SDS011;22767;47.328;9.640;2023-02-13T00:45:46;17.42;;;10.95;;
36829;SDS011;22767;47.328;9.640;2023-02-13T00:48:12;17.77;;;10.65;;
36829;SDS011;22767;47.328;9.640;2023-02-13T00:50:39;16.80;;;10.07;;
36829;SDS011;22767;47.328;9.640;2023-02-13T00:53:05;14.35;;;9.55;;
36829;SDS011;22767;47.328;9.640;2023-02-13T00:55:32;16.42;;;10.10;;
36829;SDS011;22767;47.328;9.640;2023-02-13T00:57:59;14.82;;;9.07;;
36829;SDS011;22767;47.328;9.640;2023-02-13T01:00:26;15.75;;;10.68;;
36829;SDS011;22767;47.328;9.640;2023-02-13T01:02:52;14.95;;;10.18;;
36829;SDS011;22767;47.328;9.640;2023-02-13T01:05:18;16.58;;;10.60;;
36829;SDS011;22767;47.328;9.640;2023-02-13T01:07:44;16.40;;;10.73;;
36829;SDS011;22767;47.328;9.640;2023-02-13T01:10:11;15.90;;;10.48;;
36829;SDS011;22767;47.328;9.640;2023-02-13T01:12:37;17.05;;;10.77;;
36829;SDS011;22767;47.328;9.640;2023-02-13T01:15:03;16.80;;;10.93;;
36829;SDS011;22767;47.328;9.640;2023-02-13T01:17:30;14.88;;;10.43;;
36829;SDS011;22767;47.328;9.640;2023-02-13T01:19:56;15.13;;;10.60;;
36829;SDS011;22767;47.328;9.640;2023-02-13T01:22:22;14.75;;;10.57;;
36829;SDS011;22767;47.328;9.640;2023-02-13T01:24:48;17.15;;;10.68;;
36829;SDS011;22767;47.328;9.640;2023-02-13T01:27:14;17.17;;;10.50;;
36829;SDS011;22767;47.328;9.640;2023-02-13T01:29:41;13.85;;;10.38;;
36829;SDS011;22767;47.328;9.640;2023-02-13T01:32:07;15.90;;;10.35;;
36829;SDS011;22767;47.328;9.640;2023-02-13T01:34:33;17.80;;;11.57;;
36829;SDS011;22767;47.328;9.640;2023-02-13T01:36:59;14.82;;;9.95;;
36829;SDS011;22767;47.328;9.640;2023-02-13T01:39:25;18.73;;;10.57;;
36829;SDS011;22767;47.328;9.640;2023-02-13T01:41:51;15.55;;;10.30;;
36829;SDS011;22767;47.328;9.640;2023-02-13T01:47:02;15.60;;;10.90;;
36829;SDS011;22767;47.328;9.640;2023-02-13T01:49:28;18.40;;;11.35;;
36829;SDS011;22767;47.328;9.640;2023-02-13T01:51:55;20.95;;;12.00;;
36829;SDS011;22767;47.328;9.640;2023-02-13T01:54:22;19.30;;;11.48;;
36829;SDS011;22767;47.328;9.640;2023-02-13T01:56:56;16.73;;;10.77;;
36829;SDS011;22767;47.328;9.640;2023-02-13T01:59:24;17.30;;;11.30;;
36829;SDS011;22767;47.328;9.640;2023-02-13T02:01:51;18.08;;;11.65;;
36829;SDS011;22767;47.328;9.640;2023-02-13T02:04:22;17.75;;;11.80;;
36829;SDS011;22767;47.328;9.640;2023-02-13T02:06:54;18.88;;;10.80;;
36829;SDS011;22767;47.328;9.640;2023-02-13T02:09:22;14.98;;;10.68;;
36829;SDS011;22767;47.328;9.640;2023-02-13T02:11:55;15.15;;;9.93;;
36829;SDS011;22767;47.328;9.640;2023-02-13T02:14:23;15.68;;;10.00;;
36829;SDS011;22767;47.328;9.640;2023-02-13T02:16:50;17.02;;;10.10;;
36829;SDS011;22767;47.328;9.640;2023-02-13T02:19:41;16.13;;;10.00;;
36829;SDS011;22767;47.328;9.640;2023-02-13T02:40:19;15.68;;;10.77;;
36829;SDS011;22767;47.328;9.640;2023-02-13T02:50:51;17.50;;;11.60;;
36829;SDS011;22767;47.328;9.640;2023-02-13T02:56:12;15.20;;;10.70;;
36829;SDS011;22767;47.328;9.640;2023-02-13T03:01:46;16.40;;;10.18;;
36829;SDS011;22767;47.328;9.640;2023-02-13T03:07:19;15.95;;;10.27;;
36829;SDS011;22767;47.328;9.640;2023-02-13T03:09:52;14.77;;;10.35;;
36829;SDS011;22767;47.328;9.640;2023-02-13T03:13:00;16.33;;;10.63;;
36829;SDS011;22767;47.328;9.640;2023-02-13T03:15:44;18.35;;;11.63;;
36829;SDS011;22767;47.328;9.640;2023-02-13T03:18:30;25.48;;;15.60;;
36829;SDS011;22767;47.328;9.640;2023-02-13T03:21:41;26.75;;;17.35;;
36829;SDS011;22767;47.328;9.640;2023-02-13T03:24:27;31.88;;;19.35;;
36829;SDS011;22767;47.328;9.640;2023-02-13T03:30:22;24.88;;;14.27;;
36829;SDS011;22767;47.328;9.640;2023-02-13T03:32:58;21.88;;;14.43;;
36829;SDS011;22767;47.328;9.640;2023-02-13T03:35:36;25.50;;;15.90;;
36829;SDS011;22767;47.328;9.640;2023-02-13T03:40:48;26.75;;;17.58;;
36829;SDS011;22767;47.328;9.640;2023-02-13T03:46:10;26.05;;;16.73;;
36829;SDS011;22767;47.328;9.640;2023-02-13T03:48:38;32.88;;;19.58;;
36829;SDS011;22767;47.328;9.640;2023-02-13T03:57:11;25.25;;;14.88;;
36829;SDS011;22767;47.328;9.640;2023-02-13T03:59:59;23.20;;;15.15;;
36829;SDS011;22767;47.328;9.640;2023-02-13T04:02:27;22.02;;;14.02;;
36829;SDS011;22767;47.328;9.640;2023-02-13T04:05:02;25.02;;;15.60;;
36829;SDS011;22767;47.328;9.640;2023-02-13T04:07:29;24.63;;;16.23;;
36829;SDS011;22767;47.328;9.640;2023-02-13T04:10:00;29.70;;;17.60;;
36829;SDS011;22767;47.328;9.640;2023-02-13T04:17:39;26.13;;;15.73;;
36829;SDS011;22767;47.328;9.640;2023-02-13T04:20:06;28.20;;;16.73;;
36829;SDS011;22767;47.328;9.640;2023-02-13T04:22:33;27.83;;;17.80;;
36829;SDS011;22767;47.328;9.640;2023-02-13T04:24:59;34.92;;;22.00;;
36829;SDS011;22767;47.328;9.640;2023-02-13T04:27:26;33.67;;;20.13;;
36829;SDS011;22767;47.328;9.640;2023-02-13T04:29:53;32.90;;;21.40;;
36829;SDS011;22767;47.328;9.640;2023-02-13T04:32:19;39.95;;;24.88;;
36829;SDS011;22767;47.328;9.640;2023-02-13T04:34:45;34.40;;;19.33;;
36829;SDS011;22767;47.328;9.640;2023-02-13T04:37:11;30.35;;;19.38;;
36829;SDS011;22767;47.328;9.640;2023-02-13T04:39:37;30.33;;;18.35;;
36829;SDS011;22767;47.328;9.640;2023-02-13T04:42:03;30.40;;;19.75;;
36829;SDS011;22767;47.328;9.640;2023-02-13T04:44:29;29.85;;;18.23;;
36829;SDS011;22767;47.328;9.640;2023-02-13T04:46:55;31.80;;;20.15;;
36829;SDS011;22767;47.328;9.640;2023-02-13T04:49:22;29.92;;;18.83;;
36829;SDS011;22767;47.328;9.640;2023-02-13T04:51:48;29.80;;;19.27;;
36829;SDS011;22767;47.328;9.640;2023-02-13T04:54:14;28.98;;;18.65;;
36829;SDS011;22767;47.328;9.640;2023-02-13T04:56:40;26.80;;;17.38;;
36829;SDS011;22767;47.328;9.640;2023-02-13T04:59:06;25.67;;;15.23;;
36829;SDS011;22767;47.328;9.640;2023-02-13T05:01:32;29.30;;;18.35;;
36829;SDS011;22767;47.328;9.640;2023-02-13T05:03:58;25.13;;;16.67;;
36829;SDS011;22767;47.328;9.640;2023-02-13T05:06:24;27.58;;;18.20;;
36829;SDS011;22767;47.328;9.640;2023-02-13T05:08:51;25.90;;;17.58;;
36829;SDS011;22767;47.328;9.640;2023-02-13T05:11:17;24.92;;;16.15;;
36829;SDS011;22767;47.328;9.640;2023-02-13T05:13:43;26.50;;;17.10;;
36829;SDS011;22767;47.328;9.640;2023-02-13T05:16:09;26.27;;;17.58;;
36829;SDS011;22767;47.328;9.640;2023-02-13T05:18:35;29.02;;;18.10;;
36829;SDS011;22767;47.328;9.640;2023-02-13T05:21:01;30.70;;;19.88;;
36829;SDS011;22767;47.328;9.640;2023-02-13T05:23:46;27.83;;;18.92;;
36829;SDS011;22767;47.328;9.640;2023-02-13T05:26:12;25.90;;;16.63;;
36829;SDS011;22767;47.328;9.640;2023-02-13T05:28:38;28.13;;;18.42;;
36829;SDS011;22767;47.328;9.640;2023-02-13T05:31:23;29.98;;;19.45;;
36829;SDS011;22767;47.328;9.640;2023-02-13T05:33:49;29.95;;;19.15;;
36829;SDS011;22767;47.328;9.640;2023-02-13T05:36:15;31.23;;;20.45;;
36829;SDS011;22767;47.328;9.640;2023-02-13T05:38:42;34.42;;;20.60;;
36829;SDS011;22767;47.328;9.640;2023-02-13T05:41:08;28.60;;;18.08;;
36829;SDS011;22767;47.328;9.640;2023-02-13T05:43:34;32.47;;;20.02;;
36829;SDS011;22767;47.328;9.640;2023-02-13T05:46:03;33.28;;;21.17;;
36829;SDS011;22767;47.328;9.640;2023-02-13T05:48:30;36.28;;;20.70;;
36829;SDS011;22767;47.328;9.640;2023-02-13T05:50:56;31.40;;;20.05;;
36829;SDS011;22767;47.328;9.640;2023-02-13T05:53:23;31.90;;;20.75;;
36829;SDS011;22767;47.328;9.640;2023-02-13T05:55:49;31.13;;;20.20;;
36829;SDS011;22767;47.328;9.640;2023-02-13T05:58:16;39.25;;;22.63;;
36829;SDS011;22767;47.328;9.640;2023-02-13T06:00:43;37.70;;;23.48;;
36829;SDS011;22767;47.328;9.640;2023-02-13T06:03:09;42.17;;;25.95;;
36829;SDS011;22767;47.328;9.640;2023-02-13T06:05:35;46.28;;;27.23;;
36829;SDS011;22767;47.328;9.640;2023-02-13T06:08:02;43.13;;;26.27;;
36829;SDS011;22767;47.328;9.640;2023-02-13T06:10:28;42.80;;;25.55;;
36829;SDS011;22767;47.328;9.640;2023-02-13T06:12:54;44.80;;;27.42;;
36829;SDS011;22767;47.328;9.640;2023-02-13T06:15:20;42.58;;;25.80;;
36829;SDS011;22767;47.328;9.640;2023-02-13T06:17:47;41.30;;;25.75;;
36829;SDS011;22767;47.328;9.640;2023-02-13T06:20:13;47.05;;;28.73;;
36829;SDS011;22767;47.328;9.640;2023-02-13T06:22:39;46.92;;;27.48;;
36829;SDS011;22767;47.328;9.640;2023-02-13T06:25:05;49.85;;;27.70;;
36829;SDS011;22767;47.328;9.640;2023-02-13T06:27:31;48.30;;;28.20;;
36829;SDS011;22767;47.328;9.640;2023-02-13T06:29:58;44.72;;;25.33;;
36829;SDS011;22767;47.328;9.640;2023-02-13T06:32:24;44.72;;;27.20;;
36829;SDS011;22767;47.328;9.640;2023-02-13T06:34:50;44.90;;;26.88;;
36829;SDS011;22767;47.328;9.640;2023-02-13T06:37:16;49.33;;;29.80;;
36829;SDS011;22767;47.328;9.640;2023-02-13T06:39:42;48.83;;;29.33;;
36829;SDS011;22767;47.328;9.640;2023-02-13T06:42:09;48.85;;;28.05;;
36829;SDS011;22767;47.328;9.640;2023-02-13T06:44:35;48.85;;;29.00;;
36829;SDS011;22767;47.328;9.640;2023-02-13T06:47:01;46.78;;;28.55;;
36829;SDS011;22767;47.328;9.640;2023-02-13T06:49:27;47.83;;;28.08;;
36829;SDS011;22767;47.328;9.640;2023-02-13T06:51:53;44.92;;;25.42;;
36829;SDS011;22767;47.328;9.640;2023-02-13T06:54:20;39.13;;;24.00;;
36829;SDS011;22767;47.328;9.640;2023-02-13T06:56:46;36.90;;;21.98;;
36829;SDS011;22767;47.328;9.640;2023-02-13T06:59:12;37.25;;;22.63;;
36829;SDS011;22767;47.328;9.640;2023-02-13T07:01:38;42.58;;;23.75;;
36829;SDS011;22767;47.328;9.640;2023-02-13T07:04:05;39.20;;;21.67;;
36829;SDS011;22767;47.328;9.640;2023-02-13T07:06:31;37.78;;;23.15;;
36829;SDS011;22767;47.328;9.640;2023-02-13T07:08:57;33.53;;;21.48;;
36829;SDS011;22767;47.328;9.640;2023-02-13T07:11:23;30.13;;;19.88;;
36829;SDS011;22767;47.328;9.640;2023-02-13T07:13:50;35.97;;;21.80;;
36829;SDS011;22767;47.328;9.640;2023-02-13T07:16:16;35.65;;;22.33;;
36829;SDS011;22767;47.328;9.640;2023-02-13T07:18:42;36.88;;;22.23;;
36829;SDS011;22767;47.328;9.640;2023-02-13T07:21:08;36.58;;;22.05;;
36829;SDS011;22767;47.328;9.640;2023-02-13T07:23:34;35.58;;;21.25;;
36829;SDS011;22767;47.328;9.640;2023-02-13T07:26:01;35.47;;;22.35;;
36829;SDS011;22767;47.328;9.640;2023-02-13T07:28:28;37.70;;;23.25;;
36829;SDS011;22767;47.328;9.640;2023-02-13T07:30:54;37.70;;;22.60;;
36829;SDS011;22767;47.328;9.640;2023-02-13T07:33:20;37.10;;;23.23;;
36829;SDS011;22767;47.328;9.640;2023-02-13T07:35:47;37.70;;;22.40;;
36829;SDS011;22767;47.328;9.640;2023-02-13T07:38:14;32.80;;;20.88;;
36829;SDS011;22767;47.328;9.640;2023-02-13T07:40:40;40.45;;;23.15;;
36829;SDS011;22767;47.328;9.640;2023-02-13T07:43:06;40.17;;;23.42;;
36829;SDS011;22767;47.328;9.640;2023-02-13T07:45:32;39.58;;;24.40;;
36829;SDS011;22767;47.328;9.640;2023-02-13T07:47:58;33.53;;;21.52;;
36829;SDS011;22767;47.328;9.640;2023-02-13T07:50:26;45.47;;;25.50;;
36829;SDS011;22767;47.328;9.640;2023-02-13T07:52:53;46.08;;;26.63;;
36829;SDS011;22767;47.328;9.640;2023-02-13T07:55:20;43.80;;;25.15;;
36829;SDS011;22767;47.328;9.640;2023-02-13T07:57:46;47.15;;;25.80;;
36829;SDS011;22767;47.328;9.640;2023-02-13T08:00:13;37.13;;;24.42;;
36829;SDS011;22767;47.328;9.640;2023-02-13T08:02:39;42.10;;;24.85;;
36829;SDS011;22767;47.328;9.640;2023-02-13T08:05:06;39.15;;;23.85;;
36829;SDS011;22767;47.328;9.640;2023-02-13T08:07:32;41.25;;;23.55;;
36829;SDS011;22767;47.328;9.640;2023-02-13T08:09:58;35.40;;;23.27;;
36829;SDS011;22767;47.328;9.640;2023-02-13T08:12:43;36.35;;;22.50;;
36829;SDS011;22767;47.328;9.640;2023-02-13T08:15:10;40.22;;;23.85;;
36829;SDS011;22767;47.328;9.640;2023-02-13T08:17:36;40.60;;;24.00;;
36829;SDS011;22767;47.328;9.640;2023-02-13T08:20:03;38.95;;;23.83;;
36829;SDS011;22767;47.328;9.640;2023-02-13T08:22:32;41.15;;;23.40;;
36829;SDS011;22767;47.328;9.640;2023-02-13T08:24:58;44.53;;;26.23;;
36829;SDS011;22767;47.328;9.640;2023-02-13T08:27:24;42.95;;;26.35;;
36829;SDS011;22767;47.328;9.640;2023-02-13T08:29:52;44.97;;;26.25;;
36829;SDS011;22767;47.328;9.640;2023-02-13T08:32:18;42.97;;;26.38;;
36829;SDS011;22767;47.328;9.640;2023-02-13T08:34:45;43.58;;;25.60;;
36829;SDS011;22767;47.328;9.640;2023-02-13T08:37:11;44.10;;;24.52;;
36829;SDS011;22767;47.328;9.640;2023-02-13T08:39:37;41.22;;;24.95;;
36829;SDS011;22767;47.328;9.640;2023-02-13T08:42:03;40.42;;;24.08;;
36829;SDS011;22767;47.328;9.640;2023-02-13T08:44:29;42.30;;;23.85;;
36829;SDS011;22767;47.328;9.640;2023-02-13T08:46:56;40.83;;;24.25;;
36829;SDS011;22767;47.328;9.640;2023-02-13T08:49:22;38.13;;;23.40;;
36829;SDS011;22767;47.328;9.640;2023-02-13T08:51:49;39.78;;;23.67;;
36829;SDS011;22767;47.328;9.640;2023-02-13T08:54:15;41.25;;;24.13;;
36829;SDS011;22767;47.328;9.640;2023-02-13T08:56:41;35.97;;;22.42;;
36829;SDS011;22767;47.328;9.640;2023-02-13T08:59:07;43.33;;;25.73;;
36829;SDS011;22767;47.328;9.640;2023-02-13T09:01:34;38.35;;;23.77;;
36829;SDS011;22767;47.328;9.640;2023-02-13T09:04:00;42.88;;;25.17;;
36829;SDS011;22767;47.328;9.640;2023-02-13T09:06:26;42.38;;;23.50;;
36829;SDS011;22767;47.328;9.640;2023-02-13T09:08:52;37.25;;;23.30;;
36829;SDS011;22767;47.328;9.640;2023-02-13T09:11:19;39.67;;;24.23;;
36829;SDS011;22767;47.328;9.640;2023-02-13T09:13:47;41.78;;;24.10;;
36829;SDS011;22767;47.328;9.640;2023-02-13T09:16:14;40.70;;;24.25;;
36829;SDS011;22767;47.328;9.640;2023-02-13T09:18:40;42.47;;;24.63;;
36829;SDS011;22767;47.328;9.640;2023-02-13T09:21:07;40.63;;;24.95;;
36829;SDS011;22767;47.328;9.640;2023-02-13T09:23:35;43.42;;;25.92;;
36829;SDS011;22767;47.328;9.640;2023-02-13T09:26:01;39.22;;;23.60;;
36829;SDS011;22767;47.328;9.640;2023-02-13T09:28:29;42.33;;;25.00;;
36829;SDS011;22767;47.328;9.640;2023-02-13T09:30:56;42.90;;;26.85;;
36829;SDS011;22767;47.328;9.640;2023-02-13T09:33:22;43.00;;;26.42;;
36829;SDS011;22767;47.328;9.640;2023-02-13T09:35:48;42.00;;;27.20;;
36829;SDS011;22767;47.328;9.640;2023-02-13T09:38:14;40.83;;;26.25;;
36829;SDS011;22767;47.328;9.640;2023-02-13T09:40:46;46.53;;;26.27;;
36829;SDS011;22767;47.328;9.640;2023-02-13T09:43:16;37.83;;;24.00;;
36829;SDS011;22767;47.328;9.640;2023-02-13T09:45:43;41.40;;;25.08;;
36829;SDS011;22767;47.328;9.640;2023-02-13T09:48:17;42.25;;;25.60;;
36829;SDS011;22767;47.328;9.640;2023-02-13T09:50:43;42.20;;;25.65;;
36829;SDS011;22767;47.328;9.640;2023-02-13T09:53:13;42.42;;;25.17;;
36829;SDS011;22767;47.328;9.640;2023-02-13T09:55:50;44.42;;;25.88;;
36829;SDS011;22767;47.328;9.640;2023-02-13T09:58:27;42.42;;;25.10;;
36829;SDS011;22767;47.328;9.640;2023-02-13T10:00:57;39.17;;;24.42;;
36829;SDS011;22767;47.328;9.640;2023-02-13T10:03:35;39.38;;;25.17;;
36829;SDS011;22767;47.328;9.640;2023-02-13T10:08:43;40.88;;;24.50;;
36829;SDS011;22767;47.328;9.640;2023-02-13T10:21:35;36.92;;;23.60;;
36829;SDS011;22767;47.328;9.640;2023-02-13T10:24:10;38.58;;;23.63;;
36829;SDS011;22767;47.328;9.640;2023-02-13T10:26:38;40.40;;;23.67;;
36829;SDS011;22767;47.328;9.640;2023-02-13T10:29:30;41.03;;;24.15;;
36829;SDS011;22767;47.328;9.640;2023-02-13T10:32:21;38.33;;;23.65;;
36829;SDS011;22767;47.328;9.640;2023-02-13T10:34:49;35.38;;;23.30;;
36829;SDS011;22767;47.328;9.640;2023-02-13T10:37:19;35.40;;;22.88;;
36829;SDS011;22767;47.328;9.640;2023-02-13T10:39:47;34.88;;;22.67;;
36829;SDS011;22767;47.328;9.640;2023-02-13T10:45:44;33.50;;;21.67;;
36829;SDS011;22767;47.328;9.640;2023-02-13T10:53:13;33.05;;;21.63;;
36829;SDS011;22767;47.328;9.640;2023-02-13T10:55:50;35.25;;;22.35;;
36829;SDS011;22767;47.328;9.640;2023-02-13T10:58:18;33.40;;;22.13;;
36829;SDS011;22767;47.328;9.640;2023-02-13T11:00:47;36.45;;;21.40;;
36829;SDS011;22767;47.328;9.640;2023-02-13T11:03:21;36.13;;;21.50;;
36829;SDS011;22767;47.328;9.640;2023-02-13T11:05:48;35.03;;;21.17;;
36829;SDS011;22767;47.328;9.640;2023-02-13T11:10:46;33.20;;;21.80;;
36829;SDS011;22767;47.328;9.640;2023-02-13T11:13:22;38.03;;;22.70;;
36829;SDS011;22767;47.328;9.640;2023-02-13T11:16:02;35.72;;;21.80;;
36829;SDS011;22767;47.328;9.640;2023-02-13T11:18:30;29.63;;;19.23;;
36829;SDS011;22767;47.328;9.640;2023-02-13T11:21:20;30.83;;;20.25;;
36829;SDS011;22767;47.328;9.640;2023-02-13T11:23:44;32.72;;;20.35;;
36829;SDS011;22767;47.328;9.640;2023-02-13T11:26:20;33.70;;;20.40;;
36829;SDS011;22767;47.328;9.640;2023-02-13T11:28:53;34.55;;;21.45;;
36829;SDS011;22767;47.328;9.640;2023-02-13T11:31:30;33.67;;;21.25;;
36829;SDS011;22767;47.328;9.640;2023-02-13T11:33:57;30.30;;;19.60;;
36829;SDS011;22767;47.328;9.640;2023-02-13T11:36:28;32.28;;;20.15;;
36829;SDS011;22767;47.328;9.640;2023-02-13T11:38:59;31.20;;;19.92;;
36829;SDS011;22767;47.328;9.640;2023-02-13T11:41:25;35.25;;;20.77;;
36829;SDS011;22767;47.328;9.640;2023-02-13T11:43:57;32.67;;;21.13;;
36829;SDS011;22767;47.328;9.640;2023-02-13T11:46:27;34.65;;;21.17;;
36829;SDS011;22767;47.328;9.640;2023-02-13T11:49:03;35.50;;;20.85;;
36829;SDS011;22767;47.328;9.640;2023-02-13T11:51:34;31.98;;;20.63;;
36829;SDS011;22767;47.328;9.640;2023-02-13T11:54:00;33.47;;;20.88;;
36829;SDS011;22767;47.328;9.640;2023-02-13T11:56:27;33.67;;;21.80;;
36829;SDS011;22767;47.328;9.640;2023-02-13T11:59:00;37.28;;;21.05;;
36829;SDS011;22767;47.328;9.640;2023-02-13T12:01:26;33.35;;;20.83;;
36829;SDS011;22767;47.328;9.640;2023-02-13T12:06:29;32.15;;;20.10;;
36829;SDS011;22767;47.328;9.640;2023-02-13T12:08:55;32.28;;;21.17;;
36829;SDS011;22767;47.328;9.640;2023-02-13T12:13:54;35.50;;;21.60;;
36829;SDS011;22767;47.328;9.640;2023-02-13T12:18:50;32.70;;;21.70;;
36829;SDS011;22767;47.328;9.640;2023-02-13T12:24:02;36.97;;;23.40;;
36829;SDS011;22767;47.328;9.640;2023-02-13T12:58:49;33.35;;;22.17;;
36829;SDS011;22767;47.328;9.640;2023-02-13T13:04:15;34.67;;;20.98;;
36829;SDS011;22767;47.328;9.640;2023-02-13T13:19:26;39.55;;;24.20;;
36829;SDS011;22767;47.328;9.640;2023-02-13T13:21:59;41.22;;;24.95;;
36829;SDS011;22767;47.328;9.640;2023-02-13T13:27:13;39.17;;;25.50;;
36829;SDS011;22767;47.328;9.640;2023-02-13T13:29:43;40.30;;;23.48;;
36829;SDS011;22767;47.328;9.640;2023-02-13T13:32:15;39.80;;;26.02;;
36829;SDS011;22767;47.328;9.640;2023-02-13T13:34:41;41.13;;;25.55;;
36829;SDS011;22767;47.328;9.640;2023-02-13T13:49:55;38.47;;;24.20;;
36829;SDS011;22767;47.328;9.640;2023-02-13T13:54:50;38.13;;;25.23;;
36829;SDS011;22767;47.328;9.640;2023-02-13T13:57:20;39.70;;;25.58;;
36829;SDS011;22767;47.328;9.640;2023-02-13T14:07:32;38.40;;;25.08;;
36829;SDS011;22767;47.328;9.640;2023-02-13T14:09:59;39.45;;;25.13;;
36829;SDS011;22767;47.328;9.640;2023-02-13T14:14:58;43.35;;;25.95;;
36829;SDS011;22767;47.328;9.640;2023-02-13T14:20:25;38.60;;;25.85;;
36829;SDS011;22767;47.328;9.640;2023-02-13T14:22:53;43.25;;;26.50;;
36829;SDS011;22767;47.328;9.640;2023-02-13T14:25:23;40.50;;;26.77;;
36829;SDS011;22767;47.328;9.640;2023-02-13T14:28:00;38.85;;;24.65;;
36829;SDS011;22767;47.328;9.640;2023-02-13T14:30:37;45.72;;;26.85;;
36829;SDS011;22767;47.328;9.640;2023-02-13T14:33:07;39.38;;;24.67;;
36829;SDS011;22767;47.328;9.640;2023-02-13T14:35:47;39.80;;;26.13;;
36829;SDS011;22767;47.328;9.640;2023-02-13T14:38:23;41.83;;;26.27;;
36829;SDS011;22767;47.328;9.640;2023-02-13T14:40:50;42.42;;;25.40;;
36829;SDS011;22767;47.328;9.640;2023-02-13T14:48:36;38.63;;;25.52;;
36829;SDS011;22767;47.328;9.640;2023-02-13T14:51:04;41.45;;;24.98;;
36829;SDS011;22767;47.328;9.640;2023-02-13T14:53:49;40.60;;;25.02;;
36829;SDS011;22767;47.328;9.640;2023-02-13T14:56:17;39.35;;;24.92;;
36829;SDS011;22767;47.328;9.640;2023-02-13T14:58:51;40.42;;;24.85;;
36829;SDS011;22767;47.328;9.640;2023-02-13T15:04:27;41.15;;;25.73;;
36829;SDS011;22767;47.328;9.640;2023-02-13T15:06:44;37.28;;;25.13;;
36829;SDS011;22767;47.328;9.640;2023-02-13T15:09:31;39.35;;;24.38;;
36829;SDS011;22767;47.328;9.640;2023-02-13T15:11:58;37.75;;;25.08;;
36829;SDS011;22767;47.328;9.640;2023-02-13T15:14:32;38.70;;;24.65;;
36829;SDS011;22767;47.328;9.640;2023-02-13T15:17:00;42.67;;;26.05;;
36829;SDS011;22767;47.328;9.640;2023-02-13T15:19:29;37.72;;;25.80;;
36829;SDS011;22767;47.328;9.640;2023-02-13T15:21:57;42.90;;;26.83;;
36829;SDS011;22767;47.328;9.640;2023-02-13T15:24:24;41.90;;;24.77;;
36829;SDS011;22767;47.328;9.640;2023-02-13T15:26:55;38.33;;;24.38;;
36829;SDS011;22767;47.328;9.640;2023-02-13T15:29:24;40.00;;;25.42;;
36829;SDS011;22767;47.328;9.640;2023-02-13T15:31:50;42.58;;;25.10;;
36829;SDS011;22767;47.328;9.640;2023-02-13T15:34:21;38.05;;;25.58;;
36829;SDS011;22767;47.328;9.640;2023-02-13T15:36:48;38.88;;;24.95;;
36829;SDS011;22767;47.328;9.640;2023-02-13T15:39:19;37.20;;;24.48;;
36829;SDS011;22767;47.328;9.640;2023-02-13T15:41:54;39.95;;;24.73;;
36829;SDS011;22767;47.328;9.640;2023-02-13T15:44:23;39.78;;;25.33;;
36829;SDS011;22767;47.328;9.640;2023-02-13T15:46:50;41.17;;;26.83;;
36829;SDS011;22767;47.328;9.640;2023-02-13T15:49:18;40.97;;;26.45;;
36829;SDS011;22767;47.328;9.640;2023-02-13T15:51:45;39.40;;;25.83;;
36829;SDS011;22767;47.328;9.640;2023-02-13T15:54:23;41.20;;;25.73;;
36829;SDS011;22767;47.328;9.640;2023-02-13T15:56:49;41.67;;;26.65;;
36829;SDS011;22767;47.328;9.640;2023-02-13T15:59:17;39.05;;;25.63;;
36829;SDS011;22767;47.328;9.640;2023-02-13T16:01:44;44.90;;;27.30;;
36829;SDS011;22767;47.328;9.640;2023-02-13T16:04:14;40.85;;;26.13;;
36829;SDS011;22767;47.328;9.640;2023-02-13T16:06:41;45.78;;;28.08;;
36829;SDS011;22767;47.328;9.640;2023-02-13T16:09:20;44.35;;;26.38;;
36829;SDS011;22767;47.328;9.640;2023-02-13T16:11:48;41.50;;;26.15;;
36829;SDS011;22767;47.328;9.640;2023-02-13T16:14:24;47.72;;;27.85;;
36829;SDS011;22767;47.328;9.640;2023-02-13T16:16:59;42.28;;;24.92;;
36829;SDS011;22767;47.328;9.640;2023-02-13T16:22:20;43.97;;;27.33;;
36829;SDS011;22767;47.328;9.640;2023-02-13T16:24:53;40.88;;;25.90;;
36829;SDS011;22767;47.328;9.640;2023-02-13T16:27:22;44.28;;;27.55;;
36829;SDS011;22767;47.328;9.640;2023-02-13T16:29:57;42.55;;;25.90;;
36829;SDS011;22767;47.328;9.640;2023-02-13T16:32:28;43.70;;;27.50;;
36829;SDS011;22767;47.328;9.640;2023-02-13T16:34:56;47.78;;;27.98;;
36829;SDS011;22767;47.328;9.640;2023-02-13T16:37:26;43.20;;;27.15;;
36829;SDS011;22767;47.328;9.640;2023-02-13T16:39:52;43.70;;;28.15;;
36829;SDS011;22767;47.328;9.640;2023-02-13T16:42:19;43.92;;;27.48;;
36829;SDS011;22767;47.328;9.640;2023-02-13T16:44:45;38.55;;;26.13;;
36829;SDS011;22767;47.328;9.640;2023-02-13T16:47:21;39.13;;;26.23;;
36829;SDS011;22767;47.328;9.640;2023-02-13T16:49:55;40.92;;;25.73;;
36829;SDS011;22767;47.328;9.640;2023-02-13T16:52:22;46.28;;;27.67;;
36829;SDS011;22767;47.328;9.640;2023-02-13T16:57:18;41.05;;;26.08;;
36829;SDS011;22767;47.328;9.640;2023-02-13T17:02:29;41.28;;;26.23;;
36829;SDS011;22767;47.328;9.640;2023-02-13T17:05:19;44.67;;;26.88;;
36829;SDS011;22767;47.328;9.640;2023-02-13T17:07:45;45.97;;;26.15;;
36829;SDS011;22767;47.328;9.640;2023-02-13T17:12:51;41.97;;;26.02;;
36829;SDS011;22767;47.328;9.640;2023-02-13T17:15:19;42.08;;;26.50;;
36829;SDS011;22767;47.328;9.640;2023-02-13T17:17:46;42.22;;;26.40;;
36829;SDS011;22767;47.328;9.640;2023-02-13T17:20:15;39.95;;;25.73;;
36829;SDS011;22767;47.328;9.640;2023-02-13T17:22:43;40.97;;;26.13;;
36829;SDS011;22767;47.328;9.640;2023-02-13T17:25:20;41.58;;;26.30;;
36829;SDS011;22767;47.328;9.640;2023-02-13T17:27:51;39.28;;;25.60;;
36829;SDS011;22767;47.328;9.640;2023-02-13T17:30:19;41.67;;;26.88;;
36829;SDS011;22767;47.328;9.640;2023-02-13T17:32:46;41.55;;;25.90;;
36829;SDS011;22767;47.328;9.640;2023-02-13T17:35:12;38.55;;;25.67;;
36829;SDS011;22767;47.328;9.640;2023-02-13T17:37:40;39.53;;;25.98;;
36829;SDS011;22767;47.328;9.640;2023-02-13T17:40:07;40.22;;;26.00;;
36829;SDS011;22767;47.328;9.640;2023-02-13T17:42:34;40.55;;;26.35;;